首页
METAR-TAF:

METAR-TAF

机场 :

High Level, 艾伯塔, 加拿大

纬度: 58-37N, 经度: 117-10W, 海拔: 338米

当前天气观测

该预报发布于17分钟前的10:01 UTC
风速3节,风向西转西南
温度 -11°C
湿度 92%
气压 1001 hPa
能見度: 14.5公里
多云层高于2900英尺
小雪

METAR: CYOJ 251001Z AUTO 24003KT 9SM -SN BKN029 M11/M12 A2956 RMK SLP040

时间: 03:18 (10:18 UTC)

预报

该预报发布于3小时和39分钟前的06:39 UTC
预报有效从25日的 07点(UTC)到 25日的 19点(UTC)
风速3节,风向多变
能見度: 10公里
散云层高于800英尺
多云层高于2500英尺
短暂存在
从 25日的 07点(UTC)到 25日的 19点(UTC)
能見度: 8.0公里
阴天层高于800英尺
小雪, 轻雾
成为
从 25日的 12点(UTC)到 25日的 14点(UTC)
风速8节,风向西转西北

TAF: CYOJ 250639Z 2507/2519 VRB03KT P6SM SCT008 BKN025 TEMPO 2507/2519 5SM -SN BR OVC008 BECMG 2512/2514 30008KT RMK FCST BASED ON AUTO OBS. NXT FCST BY 251300Z

超过4000个机场的气象观测和天气预报(METAR&TAF报告)。

可查询的气象台以黄色和红色小点在地图上表示。

将鼠标移到小点上方,可查看气象台名称。

然后点击查看天气观测和预报。

如需切换地图:点击带黑十字的绿色按钮放大地图;点击带横线的绿色按钮缩小地图;或者点击绿色箭头查看邻近地区的地图。


METAR-TAF: